Time;durP1;ratioP1;P1;durP2;ratioP2;P2;SDS_P1;SDS_P2;PMS_P1;PMS_P2;Temp;Humidity;BMP_temperature;BMP_pressure;BME280_temperature;BME280_humidity;BME280_pressure;Samples;Min_cycle;Max_cycle;Signal;HPM_P1;HPM_P2
2022/08/07 00:01:25;;;;;;;59.40;3.87;;;;;;;;;;5092745;28;20489;-66
2022/08/07 00:03:52;;;;;;;59.10;3.57;;;;;;;;;;5092533;28;20636;-66
2022/08/07 00:06:19;;;;;;;59.20;3.60;;;;;;;;;;5093215;28;20436;-66
2022/08/07 00:08:46;;;;;;;59.30;3.87;;;;;;;;;;5092153;28;20458;-66
2022/08/07 00:11:14;;;;;;;60.17;4.70;;;;;;;;;;5092662;28;20465;-66
2022/08/07 00:13:43;;;;;;;59.20;3.53;;;;;;;;;;5092587;28;20450;-66
2022/08/07 00:16:12;;;;;;;59.90;4.00;;;;;;;;;;5092391;28;21019;-66
2022/08/07 00:18:39;;;;;;;60.10;4.10;;;;;;;;;;5092252;28;20449;-66
2022/08/07 00:21:07;;;;;;;60.10;4.20;;;;;;;;;;5092790;28;20469;-66
2022/08/07 00:23:35;;;;;;;59.80;3.77;;;;;;;;;;5092375;28;20817;-66
2022/08/07 00:26:04;;;;;;;59.77;3.80;;;;;;;;;;5092492;28;20447;-66
2022/08/07 00:28:32;;;;;;;62.97;4.30;;;;;;;;;;5092289;28;20483;-66
2022/08/07 00:30:59;;;;;;;59.30;4.50;;;;;;;;;;5092204;28;20818;-66
2022/08/07 00:33:27;;;;;;;60.17;3.57;;;;;;;;;;5092134;28;20937;-66
2022/08/07 00:35:54;;;;;;;59.17;3.30;;;;;;;;;;5091971;28;20850;-66
2022/08/07 00:38:22;;;;;;;60.90;4.63;;;;;;;;;;5091966;28;20443;-66
2022/08/07 00:40:49;;;;;;;59.60;3.67;;;;;;;;;;5091790;28;20469;-66
2022/08/07 00:43:16;;;;;;;60.77;3.93;;;;;;;;;;5092149;28;20456;-66
2022/08/07 00:45:44;;;;;;;59.40;3.70;;;;;;;;;;5092103;28;20448;-66
2022/08/07 00:48:11;;;;;;;62.20;5.00;;;;;;;;;;5091727;28;20941;-66
2022/08/07 00:50:40;;;;;;;59.90;4.00;;;;;;;;;;5091481;28;20485;-66
2022/08/07 00:53:07;;;;;;;59.50;3.70;;;;;;;;;;5091923;28;20983;-66
2022/08/07 00:55:34;;;;;;;60.63;4.47;;;;;;;;;;5091810;28;20964;-66
2022/08/07 00:58:01;;;;;;;59.10;3.50;;;;;;;;;;5091941;28;20823;-66
2022/08/07 01:00:29;;;;;;;60.60;4.43;;;;;;;;;;5091392;28;20464;-66
2022/08/07 01:02:56;;;;;;;59.30;4.17;;;;;;;;;;5091940;28;20446;-66
2022/08/07 01:05:23;;;;;;;60.13;4.40;;;;;;;;;;5091977;28;20454;-65
2022/08/07 01:07:52;;;;;;;60.17;4.57;;;;;;;;;;5092044;28;20488;-66
2022/08/07 01:10:19;;;;;;;61.17;4.43;;;;;;;;;;5091537;28;20818;-68
2022/08/07 01:12:46;;;;;;;60.00;4.07;;;;;;;;;;5091768;28;20453;-68
2022/08/07 01:15:14;;;;;;;60.50;3.90;;;;;;;;;;5091683;28;20944;-68
2022/08/07 01:17:41;;;;;;;59.27;3.60;;;;;;;;;;5091854;28;20441;-66
2022/08/07 01:20:09;;;;;;;59.87;4.00;;;;;;;;;;5091499;28;20459;-66
2022/08/07 01:22:39;;;;;;;59.77;4.60;;;;;;;;;;5091829;28;20482;-68
2022/08/07 01:25:07;;;;;;;59.10;3.80;;;;;;;;;;5091737;28;20442;-68
2022/08/07 01:27:34;;;;;;;60.17;4.00;;;;;;;;;;5091645;28;20484;-68
2022/08/07 01:30:02;;;;;;;58.80;3.70;;;;;;;;;;5091265;28;20454;-68
2022/08/07 01:32:29;;;;;;;62.80;4.20;;;;;;;;;;5091713;28;20452;-68
2022/08/07 01:34:56;;;;;;;60.40;4.30;;;;;;;;;;5091702;28;20956;-68
2022/08/07 01:37:24;;;;;;;60.03;4.23;;;;;;;;;;5091495;28;20448;-66
2022/08/07 01:39:52;;;;;;;59.93;3.93;;;;;;;;;;5091313;28;20458;-68
2022/08/07 01:42:20;;;;;;;59.67;4.00;;;;;;;;;;5091445;28;20471;-68
2022/08/07 01:44:48;;;;;;;59.97;3.90;;;;;;;;;;5091376;28;20452;-68
2022/08/07 01:47:15;;;;;;;60.07;3.70;;;;;;;;;;5089821;28;20494;-65
2022/08/07 01:49:42;;;;;;;60.47;4.17;;;;;;;;;;5091056;28;20459;-68
2022/08/07 01:52:10;;;;;;;59.60;4.53;;;;;;;;;;5091388;28;20467;-68
2022/08/07 01:54:40;;;;;;;61.60;3.70;;;;;;;;;;5091245;28;20534;-68
2022/08/07 01:57:10;;;;;;;59.77;4.17;;;;;;;;;;5091481;28;20443;-68
2022/08/07 01:59:54;;;;;;;59.30;3.70;;;;;;;;;;5091116;28;20950;-65
2022/08/07 02:02:26;;;;;;;59.97;4.30;;;;;;;;;;5094970;28;20468;-68
2022/08/07 02:04:55;;;;;;;59.30;3.60;;;;;;;;;;5095056;28;20452;-68
2022/08/07 02:07:24;;;;;;;59.57;3.77;;;;;;;;;;5095155;28;20485;-68
2022/08/07 02:09:53;;;;;;;63.00;4.10;;;;;;;;;;5094973;28;20448;-68
2022/08/07 02:12:23;;;;;;;61.73;3.60;;;;;;;;;;5094822;28;20467;-68
2022/08/07 02:14:52;;;;;;;59.67;3.73;;;;;;;;;;5095013;28;20453;-68
2022/08/07 02:17:19;;;;;;;61.70;3.87;;;;;;;;;;5094632;28;20539;-68
2022/08/07 02:19:47;;;;;;;59.83;3.93;;;;;;;;;;5094564;28;20440;-68
2022/08/07 02:22:14;;;;;;;60.17;3.93;;;;;;;;;;5094697;28;20463;-68
2022/08/07 02:24:43;;;;;;;59.70;4.00;;;;;;;;;;5094846;28;20448;-68
2022/08/07 02:27:11;;;;;;;59.00;3.90;;;;;;;;;;5094394;28;20521;-68
2022/08/07 02:29:40;;;;;;;59.10;3.40;;;;;;;;;;5094174;28;20448;-68
2022/08/07 02:32:08;;;;;;;59.17;3.73;;;;;;;;;;5094234;28;20467;-68
2022/08/07 02:34:37;;;;;;;60.13;4.00;;;;;;;;;;5094591;28;20450;-68
2022/08/07 02:37:07;;;;;;;60.00;3.80;;;;;;;;;;5094625;28;20440;-68
2022/08/07 02:39:35;;;;;;;60.37;4.43;;;;;;;;;;5094221;28;20489;-68
2022/08/07 02:42:02;;;;;;;60.27;3.80;;;;;;;;;;5094232;28;20553;-68
2022/08/07 02:44:30;;;;;;;59.57;3.90;;;;;;;;;;5094257;28;20829;-68
2022/08/07 02:47:00;;;;;;;58.67;3.40;;;;;;;;;;5094582;28;20483;-68
2022/08/07 02:49:27;;;;;;;58.97;3.10;;;;;;;;;;5094157;28;20874;-68
2022/08/07 02:51:57;;;;;;;60.50;3.80;;;;;;;;;;5094110;28;20494;-66
2022/08/07 02:54:24;;;;;;;60.07;4.23;;;;;;;;;;5094354;28;20523;-65
2022/08/07 02:56:52;;;;;;;59.20;3.70;;;;;;;;;;5093848;28;20442;-65
2022/08/07 02:59:20;;;;;;;59.70;3.60;;;;;;;;;;5093546;28;20454;-65
2022/08/07 03:01:48;;;;;;;62.20;4.20;;;;;;;;;;5093798;28;20466;-65
2022/08/07 03:04:17;;;;;;;59.50;4.07;;;;;;;;;;5094052;28;20829;-65
2022/08/07 03:06:45;;;;;;;59.27;3.63;;;;;;;;;;5093658;28;21017;-65
2022/08/07 03:09:12;;;;;;;59.50;3.93;;;;;;;;;;5093536;28;20484;-67
2022/08/07 03:11:39;;;;;;;68.83;4.87;;;;;;;;;;5093595;28;20473;-68
2022/08/07 03:14:07;;;;;;;61.00;4.60;;;;;;;;;;5093489;28;20455;-68
2022/08/07 03:16:35;;;;;;;59.27;3.27;;;;;;;;;;5093858;28;20451;-68
2022/08/07 03:19:02;;;;;;;60.00;3.90;;;;;;;;;;5093395;28;20447;-68
2022/08/07 03:21:31;;;;;;;59.60;3.60;;;;;;;;;;5093330;28;20494;-68
2022/08/07 03:23:59;;;;;;;59.40;3.73;;;;;;;;;;5093388;28;20556;-68
2022/08/07 03:26:27;;;;;;;59.37;3.80;;;;;;;;;;5093214;28;20926;-68
2022/08/07 03:28:54;;;;;;;61.53;4.03;;;;;;;;;;5093211;28;20844;-68
2022/08/07 03:31:22;;;;;;;59.70;3.50;;;;;;;;;;5093172;28;20996;-68
2022/08/07 03:33:50;;;;;;;59.30;3.80;;;;;;;;;;5093313;28;20453;-68
2022/08/07 03:36:18;;;;;;;59.17;3.77;;;;;;;;;;5093328;28;20450;-68
2022/08/07 03:38:48;;;;;;;61.90;3.80;;;;;;;;;;5092702;28;20495;-68
2022/08/07 03:41:15;;;;;;;59.20;3.63;;;;;;;;;;5093182;28;20472;-68
2022/08/07 03:43:43;;;;;;;60.50;4.30;;;;;;;;;;5093235;28;20442;-68
2022/08/07 03:46:11;;;;;;;59.67;3.93;;;;;;;;;;5092907;28;21014;-68
2022/08/07 03:48:39;;;;;;;59.20;3.87;;;;;;;;;;5092667;28;20488;-68
2022/08/07 03:51:07;;;;;;;62.10;4.33;;;;;;;;;;5092731;28;20469;-68
2022/08/07 03:53:34;;;;;;;58.87;3.73;;;;;;;;;;5092829;28;20961;-68
2022/08/07 03:56:03;;;;;;;58.97;3.47;;;;;;;;;;5093128;28;20442;-66
2022/08/07 03:58:30;;;;;;;59.77;4.00;;;;;;;;;;5092452;28;20439;-65
2022/08/07 04:00:58;;;;;;;59.70;4.20;;;;;;;;;;5092946;28;20973;-65
2022/08/07 04:03:25;;;;;;;59.70;4.00;;;;;;;;;;5092765;28;20815;-65
2022/08/07 04:05:52;;;;;;;59.17;3.60;;;;;;;;;;5092538;28;21024;-65
2022/08/07 04:08:20;;;;;;;59.90;3.93;;;;;;;;;;5092454;28;20482;-65
2022/08/07 04:10:47;;;;;;;59.70;4.27;;;;;;;;;;5092230;28;20475;-65
2022/08/07 04:13:16;;;;;;;59.87;4.00;;;;;;;;;;5092575;28;20493;-65
2022/08/07 04:15:43;;;;;;;58.87;4.00;;;;;;;;;;5092474;28;20450;-65
2022/08/07 04:18:12;;;;;;;60.33;3.90;;;;;;;;;;5092286;28;20447;-65
2022/08/07 04:20:40;;;;;;;59.37;3.90;;;;;;;;;;5092352;28;20476;-65
2022/08/07 04:23:07;;;;;;;61.00;4.43;;;;;;;;;;5092105;28;20936;-65
2022/08/07 04:25:36;;;;;;;60.17;3.60;;;;;;;;;;5092408;28;20481;-65
2022/08/07 04:28:04;;;;;;;59.77;4.20;;;;;;;;;;5092152;28;20476;-65
2022/08/07 04:30:33;;;;;;;59.03;3.60;;;;;;;;;;5091983;28;20883;-65
2022/08/07 04:33:00;;;;;;;59.50;3.90;;;;;;;;;;5092215;28;20628;-65
2022/08/07 04:35:27;;;;;;;59.60;4.70;;;;;;;;;;5092376;28;20449;-65
2022/08/07 04:37:55;;;;;;;59.40;4.03;;;;;;;;;;5092349;28;20451;-65
2022/08/07 04:40:22;;;;;;;62.13;4.10;;;;;;;;;;5091867;28;20444;-65
2022/08/07 04:42:49;;;;;;;59.40;4.10;;;;;;;;;;5092549;28;20447;-65
2022/08/07 04:45:17;;;;;;;59.40;4.00;;;;;;;;;;5091813;28;20535;-65
2022/08/07 04:47:55;;;;;;;59.27;3.40;;;;;;;;;;5092107;28;20490;-65
2022/08/07 04:50:28;;;;;;;59.87;4.10;;;;;;;;;;5091643;28;20459;-66
2022/08/07 04:53:00;;;;;;;60.10;4.40;;;;;;;;;;5092086;28;20798;-65
2022/08/07 04:55:29;;;;;;;59.40;3.50;;;;;;;;;;5091984;28;20454;-65
2022/08/07 04:58:00;;;;;;;59.20;3.90;;;;;;;;;;5091716;28;20440;-65
2022/08/07 05:00:34;;;;;;;60.13;4.37;;;;;;;;;;5091600;28;20468;-68
2022/08/07 05:03:06;;;;;;;59.20;4.07;;;;;;;;;;5092066;28;20452;-68
2022/08/07 05:05:36;;;;;;;58.53;3.40;;;;;;;;;;5092134;28;20447;-68
2022/08/07 05:08:05;;;;;;;59.60;4.00;;;;;;;;;;5091576;28;20486;-68
2022/08/07 05:10:35;;;;;;;59.20;3.60;;;;;;;;;;5091559;28;20466;-68
2022/08/07 05:13:07;;;;;;;58.90;3.50;;;;;;;;;;5092122;28;20443;-68
2022/08/07 05:15:36;;;;;;;60.20;4.27;;;;;;;;;;5092030;28;20447;-68
2022/08/07 05:18:06;;;;;;;58.90;3.50;;;;;;;;;;5091686;28;20447;-68
2022/08/07 05:20:35;;;;;;;61.00;3.73;;;;;;;;;;5091343;28;20460;-68
2022/08/07 05:23:06;;;;;;;58.87;3.50;;;;;;;;;;5091625;28;20850;-68
2022/08/07 05:25:34;;;;;;;61.53;4.33;;;;;;;;;;5091954;28;20534;-68
2022/08/07 05:28:01;;;;;;;58.83;3.13;;;;;;;;;;5091607;28;20487;-68
2022/08/07 05:30:29;;;;;;;59.20;3.60;;;;;;;;;;5091180;28;20479;-68
2022/08/07 05:32:57;;;;;;;59.77;3.67;;;;;;;;;;5091602;28;20448;-68
2022/08/07 05:35:26;;;;;;;59.10;3.40;;;;;;;;;;5092891;28;20445;-68
2022/08/07 05:37:54;;;;;;;58.90;3.30;;;;;;;;;;5095676;28;20471;-66
2022/08/07 05:40:21;;;;;;;59.10;3.60;;;;;;;;;;5095245;28;20793;-68
2022/08/07 05:42:48;;;;;;;59.00;3.73;;;;;;;;;;5095536;28;20448;-65
2022/08/07 05:45:16;;;;;;;59.33;3.73;;;;;;;;;;5095317;28;20455;-66
2022/08/07 05:47:43;;;;;;;59.10;3.60;;;;;;;;;;5095141;28;20478;-68
2022/08/07 05:50:11;;;;;;;59.17;3.70;;;;;;;;;;5094798;28;20543;-68
2022/08/07 05:52:39;;;;;;;59.47;3.43;;;;;;;;;;5095413;28;20448;-66
2022/08/07 05:55:07;;;;;;;58.83;3.50;;;;;;;;;;5095216;28;20456;-68
2022/08/07 05:57:36;;;;;;;60.17;3.33;;;;;;;;;;5095211;28;20448;-68
2022/08/07 06:00:03;;;;;;;58.83;3.50;;;;;;;;;;5094748;28;20452;-68
2022/08/07 06:02:33;;;;;;;58.67;3.37;;;;;;;;;;5095538;28;20466;-68
2022/08/07 06:05:03;;;;;;;60.83;3.70;;;;;;;;;;5095110;28;20455;-68
2022/08/07 06:07:30;;;;;;;59.50;3.90;;;;;;;;;;5095079;28;20851;-66
2022/08/07 06:09:59;;;;;;;58.77;3.10;;;;;;;;;;5094965;28;20442;-68
2022/08/07 06:12:26;;;;;;;58.43;3.33;;;;;;;;;;5095209;28;20466;-66
2022/08/07 06:14:53;;;;;;;60.00;4.40;;;;;;;;;;5094691;28;20957;-68
2022/08/07 06:17:21;;;;;;;59.07;3.37;;;;;;;;;;5094893;28;20451;-66
2022/08/07 06:19:48;;;;;;;58.90;3.33;;;;;;;;;;5094329;28;20460;-68
2022/08/07 06:22:16;;;;;;;59.37;3.90;;;;;;;;;;5094620;28;20472;-66
2022/08/07 06:24:43;;;;;;;59.93;4.00;;;;;;;;;;5094616;28;20460;-65
2022/08/07 06:27:20;;;;;;;58.60;3.17;;;;;;;;;;5094551;28;20450;-65
2022/08/07 06:29:47;;;;;;;59.00;3.30;;;;;;;;;;5094707;28;20439;-67
2022/08/07 06:32:14;;;;;;;58.50;3.07;;;;;;;;;;5094408;28;20494;-66
2022/08/07 06:34:41;;;;;;;59.10;3.30;;;;;;;;;;5094649;28;20442;-67
2022/08/07 06:37:08;;;;;;;60.17;3.50;;;;;;;;;;5094465;28;20537;-66
2022/08/07 06:39:35;;;;;;;58.80;3.60;;;;;;;;;;5094022;28;20442;-67
2022/08/07 06:42:04;;;;;;;58.57;2.90;;;;;;;;;;5094100;28;20466;-67
2022/08/07 06:44:34;;;;;;;58.67;3.60;;;;;;;;;;5094396;28;20452;-67
2022/08/07 06:47:01;;;;;;;58.80;3.20;;;;;;;;;;5093723;28;20446;-67
2022/08/07 06:49:28;;;;;;;58.50;3.10;;;;;;;;;;5093690;28;20493;-67
2022/08/07 06:51:55;;;;;;;61.10;3.50;;;;;;;;;;5093974;28;20476;-67
2022/08/07 06:54:25;;;;;;;58.90;3.40;;;;;;;;;;5093870;28;20453;-67
2022/08/07 06:56:52;;;;;;;58.97;3.40;;;;;;;;;;5094172;28;20470;-67
2022/08/07 06:59:21;;;;;;;59.97;3.77;;;;;;;;;;5093764;28;20449;-67
2022/08/07 07:01:50;;;;;;;59.80;3.70;;;;;;;;;;5093946;28;20505;-67
2022/08/07 07:04:18;;;;;;;58.77;3.40;;;;;;;;;;5093888;28;20490;-67
2022/08/07 07:06:45;;;;;;;59.30;3.80;;;;;;;;;;5093903;28;20477;-66
2022/08/07 07:09:19;;;;;;;59.90;5.17;;;;;;;;;;5093204;28;20479;-66
2022/08/07 07:11:49;;;;;;;59.57;3.77;;;;;;;;;;5093852;28;20462;-66
2022/08/07 07:14:18;;;;;;;59.17;3.43;;;;;;;;;;5094264;28;20453;-66
2022/08/07 07:16:46;;;;;;;58.57;3.20;;;;;;;;;;5093716;28;20449;-67
2022/08/07 07:19:16;;;;;;;59.27;4.03;;;;;;;;;;5093240;28;20439;-66
2022/08/07 07:21:43;;;;;;;58.87;3.20;;;;;;;;;;5093325;28;20466;-67
2022/08/07 07:24:10;;;;;;;59.10;3.57;;;;;;;;;;5093520;28;20464;-67
2022/08/07 07:26:37;;;;;;;58.80;3.20;;;;;;;;;;5093435;28;20641;-67
2022/08/07 07:29:07;;;;;;;59.07;3.50;;;;;;;;;;5092940;28;20526;-66
2022/08/07 07:31:38;;;;;;;59.07;3.33;;;;;;;;;;5093200;28;20492;-67
2022/08/07 07:34:06;;;;;;;58.60;3.23;;;;;;;;;;5093234;28;20822;-66
2022/08/07 07:36:36;;;;;;;58.70;3.07;;;;;;;;;;5093379;28;20442;-66
2022/08/07 07:39:04;;;;;;;72.37;4.00;;;;;;;;;;5092837;28;20938;-66
2022/08/07 07:41:33;;;;;;;59.10;2.90;;;;;;;;;;5093147;28;20473;-67
2022/08/07 07:44:01;;;;;;;58.60;3.00;;;;;;;;;;5093158;28;20457;-67
2022/08/07 07:46:29;;;;;;;60.10;3.37;;;;;;;;;;5093056;28;20767;-66
2022/08/07 07:48:57;;;;;;;58.27;2.80;;;;;;;;;;5092706;28;20887;-67
2022/08/07 07:51:24;;;;;;;58.43;2.90;;;;;;;;;;5093248;28;20466;-67
2022/08/07 07:53:53;;;;;;;59.63;4.00;;;;;;;;;;5092971;28;20818;-66
2022/08/07 07:56:23;;;;;;;58.13;2.87;;;;;;;;;;5092931;28;20879;-67
2022/08/07 07:58:51;;;;;;;58.70;3.20;;;;;;;;;;5091828;28;20453;-66
2022/08/07 08:01:19;;;;;;;58.37;2.80;;;;;;;;;;5092515;28;20467;-67
2022/08/07 08:03:47;;;;;;;58.40;3.03;;;;;;;;;;5092939;28;20814;-66
2022/08/07 08:06:14;;;;;;;58.60;3.23;;;;;;;;;;5092813;28;20450;-66
2022/08/07 08:08:43;;;;;;;58.17;2.90;;;;;;;;;;5092329;28;20478;-66
2022/08/07 08:11:12;;;;;;;58.60;2.90;;;;;;;;;;5092511;28;20468;-66
2022/08/07 08:13:41;;;;;;;58.10;2.47;;;;;;;;;;5092447;28;20439;-66
2022/08/07 08:16:09;;;;;;;58.20;2.97;;;;;;;;;;5092752;28;20443;-66
2022/08/07 08:18:37;;;;;;;58.27;2.70;;;;;;;;;;5092347;28;20788;-66
2022/08/07 08:21:04;;;;;;;58.33;2.80;;;;;;;;;;5092263;28;20478;-66
2022/08/07 08:29:07;;;;;;;58.27;3.00;;;;;;;;;;5091939;28;20483;-66
2022/08/07 08:31:35;;;;;;;58.27;2.50;;;;;;;;;;5092418;28;20508;-66
2022/08/07 08:34:03;;;;;;;58.60;2.70;;;;;;;;;;5092268;28;20445;-66
2022/08/07 08:36:32;;;;;;;58.20;2.50;;;;;;;;;;5092074;28;20452;-66
2022/08/07 08:39:00;;;;;;;58.40;2.73;;;;;;;;;;5091775;28;20443;-67
2022/08/07 08:41:32;;;;;;;58.50;2.90;;;;;;;;;;5092216;28;20471;-67
2022/08/07 08:44:02;;;;;;;58.20;2.70;;;;;;;;;;5092294;28;20460;-66
2022/08/07 08:46:36;;;;;;;60.30;2.67;;;;;;;;;;5092215;28;20452;-66
2022/08/07 08:49:14;;;;;;;58.27;2.73;;;;;;;;;;5091470;28;20837;-66
2022/08/07 08:51:44;;;;;;;58.60;2.90;;;;;;;;;;5092104;28;20467;-67
2022/08/07 08:54:16;;;;;;;58.37;2.70;;;;;;;;;;5092224;28;20805;-66
2022/08/07 08:56:45;;;;;;;58.17;2.70;;;;;;;;;;5092060;28;20455;-66
2022/08/07 08:59:15;;;;;;;57.63;2.60;;;;;;;;;;5091708;28;20442;-66
2022/08/07 09:01:44;;;;;;;64.60;2.60;;;;;;;;;;5091769;28;20540;-66
2022/08/07 09:04:17;;;;;;;58.17;2.77;;;;;;;;;;5092143;28;20453;-66
2022/08/07 09:06:47;;;;;;;58.80;2.97;;;;;;;;;;5091778;28;20453;-66
2022/08/07 09:09:20;;;;;;;58.17;2.80;;;;;;;;;;5092851;28;20481;-67
2022/08/07 09:11:51;;;;;;;58.27;2.50;;;;;;;;;;5096015;28;20468;-67
2022/08/07 09:14:20;;;;;;;58.10;2.27;;;;;;;;;;5096230;28;20453;-67
2022/08/07 09:16:57;;;;;;;60.33;2.90;;;;;;;;;;5096101;28;20477;-67
2022/08/07 09:19:28;;;;;;;58.17;2.70;;;;;;;;;;5095566;28;20446;-67
2022/08/07 09:22:02;;;;;;;57.87;2.27;;;;;;;;;;5095933;28;20802;-67
2022/08/07 09:24:40;;;;;;;58.13;2.40;;;;;;;;;;5095733;28;20464;-67
2022/08/07 09:27:16;;;;;;;59.17;2.90;;;;;;;;;;5095705;28;20442;-67
2022/08/07 09:29:53;;;;;;;58.57;2.73;;;;;;;;;;5095401;28;20485;-67
2022/08/07 09:32:26;;;;;;;58.17;2.37;;;;;;;;;;5095568;28;20473;-67
2022/08/07 09:34:59;;;;;;;58.10;2.40;;;;;;;;;;5095453;28;20469;-67
2022/08/07 09:37:29;;;;;;;58.20;2.30;;;;;;;;;;5095787;28;20461;-67
2022/08/07 09:40:02;;;;;;;57.97;2.50;;;;;;;;;;5095775;28;20449;-67
2022/08/07 09:42:44;;;;;;;58.20;2.50;;;;;;;;;;5095591;28;20450;-67
2022/08/07 09:45:13;;;;;;;58.07;2.30;;;;;;;;;;5095459;28;20450;-67
2022/08/07 09:47:46;;;;;;;58.10;2.37;;;;;;;;;;5095301;28;20535;-67
2022/08/07 09:50:18;;;;;;;57.77;2.33;;;;;;;;;;5094821;28;20498;-67
2022/08/07 09:52:48;;;;;;;60.00;2.37;;;;;;;;;;5095356;28;20529;-67
2022/08/07 09:55:17;;;;;;;58.10;2.30;;;;;;;;;;5095687;28;20442;-67
2022/08/07 09:58:05;;;;;;;57.73;2.20;;;;;;;;;;5095089;28;20476;-67
2022/08/07 10:00:42;;;;;;;57.67;2.23;;;;;;;;;;5095018;28;20873;-67
2022/08/07 10:03:33;;;;;;;57.80;2.20;;;;;;;;;;5095140;28;20442;-67
2022/08/07 10:06:15;;;;;;;57.97;2.30;;;;;;;;;;5079843;28;20450;-67
2022/08/07 10:08:58;;;;;;;57.80;2.00;;;;;;;;;;5092336;28;20476;-67
2022/08/07 10:11:33;;;;;;;57.90;2.10;;;;;;;;;;5094939;28;20543;-67
2022/08/07 10:14:05;;;;;;;57.73;2.07;;;;;;;;;;5094970;28;20453;-67
2022/08/07 10:16:46;;;;;;;57.83;2.30;;;;;;;;;;5094825;28;20862;-67
2022/08/07 10:19:19;;;;;;;58.07;2.43;;;;;;;;;;5094621;28;20473;-67
2022/08/07 10:21:53;;;;;;;60.60;4.70;;;;;;;;;;5093786;28;20462;-67
2022/08/07 10:24:30;;;;;;;58.27;3.00;;;;;;;;;;5094670;28;20442;-67
2022/08/07 10:27:03;;;;;;;57.67;2.63;;;;;;;;;;5094506;28;20478;-68
2022/08/07 10:29:42;;;;;;;59.90;3.93;;;;;;;;;;5094103;28;20517;-67
2022/08/07 10:32:20;;;;;;;58.70;3.83;;;;;;;;;;5094345;28;20523;-67
2022/08/07 10:34:55;;;;;;;58.37;2.20;;;;;;;;;;5094583;28;20445;-67
2022/08/07 10:37:28;;;;;;;58.00;2.83;;;;;;;;;;5094292;28;21016;-68
2022/08/07 10:40:03;;;;;;;57.37;2.07;;;;;;;;;;5094019;28;20930;-68
2022/08/07 10:42:35;;;;;;;57.07;2.00;;;;;;;;;;5094494;28;20454;-66
2022/08/07 10:45:03;;;;;;;57.20;2.10;;;;;;;;;;5094379;28;20442;-66
2022/08/07 10:47:35;;;;;;;57.07;2.03;;;;;;;;;;5094120;28;20504;-66
2022/08/07 10:50:06;;;;;;;57.07;2.00;;;;;;;;;;5093570;28;20508;-66
2022/08/07 10:52:36;;;;;;;56.73;1.80;;;;;;;;;;5094330;28;20446;-66
2022/08/07 10:55:12;;;;;;;56.87;1.83;;;;;;;;;;5094196;28;20454;-66
2022/08/07 10:57:43;;;;;;;56.87;1.80;;;;;;;;;;5094175;28;20949;-66
2022/08/07 11:00:12;;;;;;;56.53;2.00;;;;;;;;;;5093770;28;20447;-66
2022/08/07 11:02:44;;;;;;;57.00;2.73;;;;;;;;;;5093833;28;20446;-66
2022/08/07 11:05:28;;;;;;;57.80;1.80;;;;;;;;;;5093859;28;20541;-66
2022/08/07 11:08:00;;;;;;;56.47;1.83;;;;;;;;;;5093840;28;20449;-66
2022/08/07 11:10:30;;;;;;;56.50;2.07;;;;;;;;;;5093373;28;20482;-66
2022/08/07 11:12:59;;;;;;;56.87;2.00;;;;;;;;;;5093614;28;20453;-66
2022/08/07 11:15:28;;;;;;;57.30;2.70;;;;;;;;;;5093673;28;20456;-66
2022/08/07 11:18:01;;;;;;;57.37;2.50;;;;;;;;;;5093847;28;20443;-66
2022/08/07 11:20:37;;;;;;;57.17;2.30;;;;;;;;;;5093250;28;20546;-66
2022/08/07 11:23:09;;;;;;;59.50;2.03;;;;;;;;;;5093532;28;20446;-66
2022/08/07 11:25:38;;;;;;;56.70;1.90;;;;;;;;;;5093520;28;20930;-67
2022/08/07 11:28:09;;;;;;;56.97;1.80;;;;;;;;;;5093303;28;20457;-66
2022/08/07 11:30:42;;;;;;;56.90;2.23;;;;;;;;;;5093138;28;20492;-66
2022/08/07 11:33:17;;;;;;;58.27;1.80;;;;;;;;;;5092245;28;20632;-66
2022/08/07 11:35:47;;;;;;;56.27;1.70;;;;;;;;;;5093325;28;20442;-66
2022/08/07 11:38:17;;;;;;;57.00;1.80;;;;;;;;;;5093279;28;20452;-66
2022/08/07 11:40:50;;;;;;;57.10;1.83;;;;;;;;;;5093069;28;20837;-66
2022/08/07 11:43:19;;;;;;;56.47;1.90;;;;;;;;;;5093130;28;20927;-66
2022/08/07 11:45:54;;;;;;;56.90;2.10;;;;;;;;;;5093129;28;20468;-66
2022/08/07 11:48:31;;;;;;;56.67;1.87;;;;;;;;;;5092906;28;20958;-66
2022/08/07 11:51:09;;;;;;;56.60;1.80;;;;;;;;;;5092831;28;20512;-66
2022/08/07 11:53:41;;;;;;;56.77;1.90;;;;;;;;;;5093019;28;20451;-66
2022/08/07 11:56:16;;;;;;;56.60;1.90;;;;;;;;;;5093047;28;20545;-66
2022/08/07 11:58:49;;;;;;;56.37;1.70;;;;;;;;;;5092462;28;20450;-66
2022/08/07 12:01:29;;;;;;;56.50;1.70;;;;;;;;;;5092789;28;20493;-66
2022/08/07 12:04:26;;;;;;;56.77;1.87;;;;;;;;;;5093212;28;20457;-66
2022/08/07 12:06:55;;;;;;;58.50;2.43;;;;;;;;;;5092589;28;21050;-66
2022/08/07 12:09:25;;;;;;;56.47;1.77;;;;;;;;;;5092601;28;20451;-66
2022/08/07 12:11:59;;;;;;;56.37;2.10;;;;;;;;;;5092715;28;20459;-66
2022/08/07 12:14:28;;;;;;;58.20;2.00;;;;;;;;;;5092681;28;20486;-66
2022/08/07 12:16:56;;;;;;;56.60;1.83;;;;;;;;;;5092483;28;20825;-66
2022/08/07 12:19:32;;;;;;;56.77;1.80;;;;;;;;;;5092035;28;20446;-66
2022/08/07 12:22:03;;;;;;;56.57;1.63;;;;;;;;;;5092592;28;20466;-66
2022/08/07 12:24:33;;;;;;;56.77;2.20;;;;;;;;;;5092430;28;20964;-66
2022/08/07 12:27:03;;;;;;;56.50;1.67;;;;;;;;;;5092586;28;20694;-66
2022/08/07 12:29:33;;;;;;;58.40;1.90;;;;;;;;;;5091913;28;20446;-66
2022/08/07 12:32:04;;;;;;;56.47;2.00;;;;;;;;;;5092161;28;20473;-66
2022/08/07 12:34:35;;;;;;;56.70;2.03;;;;;;;;;;5092427;28;20443;-66
2022/08/07 12:37:02;;;;;;;56.37;1.70;;;;;;;;;;5092379;28;20443;-67
2022/08/07 12:39:31;;;;;;;56.50;1.70;;;;;;;;;;5091772;28;20549;-66
2022/08/07 12:41:58;;;;;;;56.37;1.87;;;;;;;;;;5092043;28;20469;-66
2022/08/07 12:44:26;;;;;;;56.50;1.90;;;;;;;;;;5091675;28;20443;-66
2022/08/07 12:47:03;;;;;;;56.67;1.90;;;;;;;;;;5092317;28;20446;-66
2022/08/07 12:49:38;;;;;;;56.67;2.00;;;;;;;;;;5091721;28;20970;-66
2022/08/07 12:52:07;;;;;;;56.37;1.80;;;;;;;;;;5092082;28;20474;-66
2022/08/07 12:54:40;;;;;;;56.40;1.87;;;;;;;;;;5092682;28;20496;-66
2022/08/07 12:57:08;;;;;;;57.43;1.80;;;;;;;;;;5091938;28;20453;-66
2022/08/07 12:59:36;;;;;;;56.67;1.90;;;;;;;;;;5091683;28;20533;-66
2022/08/07 13:02:08;;;;;;;56.17;1.80;;;;;;;;;;5091810;28;20467;-66
2022/08/07 13:04:52;;;;;;;56.17;1.90;;;;;;;;;;5091896;28;20489;-66
2022/08/07 13:07:32;;;;;;;56.30;1.90;;;;;;;;;;5091863;28;20860;-66
2022/08/07 13:10:15;;;;;;;56.47;1.90;;;;;;;;;;5091754;28;20445;-66
2022/08/07 13:12:54;;;;;;;56.60;1.90;;;;;;;;;;5091994;28;20792;-67
2022/08/07 13:15:27;;;;;;;56.27;1.60;;;;;;;;;;5092101;28;20530;-66
2022/08/07 13:18:01;;;;;;;56.13;1.70;;;;;;;;;;5091627;28;20454;-66
2022/08/07 13:20:35;;;;;;;56.67;1.83;;;;;;;;;;5091632;28;20618;-66
2022/08/07 13:23:07;;;;;;;56.50;1.80;;;;;;;;;;5092072;28;20446;-67
2022/08/07 13:25:38;;;;;;;56.50;1.70;;;;;;;;;;5091907;28;20446;-66
2022/08/07 13:28:07;;;;;;;56.40;1.80;;;;;;;;;;5091725;28;20460;-66
2022/08/07 13:30:35;;;;;;;56.37;1.67;;;;;;;;;;5091527;28;20536;-66
2022/08/07 13:33:05;;;;;;;56.47;1.90;;;;;;;;;;5091836;28;20473;-66
2022/08/07 13:35:42;;;;;;;56.50;1.80;;;;;;;;;;5091820;28;20914;-66
2022/08/07 13:38:14;;;;;;;56.17;2.27;;;;;;;;;;5091642;28;20457;-66
2022/08/07 13:40:46;;;;;;;57.40;2.27;;;;;;;;;;5091041;28;20502;-66
2022/08/07 13:43:15;;;;;;;56.17;1.80;;;;;;;;;;5091742;28;20453;-67
2022/08/07 13:45:44;;;;;;;57.00;2.10;;;;;;;;;;5091672;28;20965;-66
2022/08/07 13:48:13;;;;;;;56.30;1.93;;;;;;;;;;5091554;28;20446;-66
2022/08/07 13:50:43;;;;;;;56.37;2.10;;;;;;;;;;5091088;28;20474;-66
2022/08/07 13:53:10;;;;;;;56.50;2.13;;;;;;;;;;5091378;28;20442;-66
2022/08/07 13:55:39;;;;;;;56.03;2.07;;;;;;;;;;5091782;28;20449;-66
2022/08/07 14:00:48;;;;;;;56.47;2.00;;;;;;;;;;5094440;28;20489;-66
2022/08/07 14:03:17;;;;;;;56.40;1.80;;;;;;;;;;5095125;28;20453;-66
2022/08/07 14:05:46;;;;;;;60.07;2.00;;;;;;;;;;5094956;28;20453;-66
2022/08/07 14:08:13;;;;;;;56.57;1.80;;;;;;;;;;5094870;28;20930;-66
2022/08/07 14:10:41;;;;;;;56.90;2.00;;;;;;;;;;5094791;28;20472;-66
2022/08/07 14:13:10;;;;;;;57.07;1.97;;;;;;;;;;5095229;28;20456;-66
2022/08/07 14:15:39;;;;;;;56.60;1.80;;;;;;;;;;5094887;28;20443;-66
2022/08/07 14:18:08;;;;;;;56.47;1.90;;;;;;;;;;5094698;28;20453;-66
2022/08/07 14:20:37;;;;;;;56.57;2.03;;;;;;;;;;5094307;28;20857;-66
2022/08/07 14:23:07;;;;;;;56.13;2.07;;;;;;;;;;5095032;28;20825;-67
2022/08/07 14:25:35;;;;;;;56.27;2.00;;;;;;;;;;5094761;28;20442;-67
2022/08/07 14:28:05;;;;;;;57.00;2.13;;;;;;;;;;5094427;28;20953;-66
2022/08/07 14:30:32;;;;;;;56.57;1.80;;;;;;;;;;5094436;28;20482;-66
2022/08/07 14:33:01;;;;;;;56.60;2.20;;;;;;;;;;5095123;28;20450;-67
2022/08/07 14:35:29;;;;;;;56.70;2.10;;;;;;;;;;5094430;28;20450;-67
2022/08/07 14:37:57;;;;;;;56.13;2.10;;;;;;;;;;5094415;28;20439;-66
2022/08/07 14:40:28;;;;;;;57.00;2.00;;;;;;;;;;5094033;28;20484;-66
2022/08/07 14:42:57;;;;;;;56.13;1.90;;;;;;;;;;5094304;28;20453;-66
2022/08/07 14:45:28;;;;;;;56.67;1.80;;;;;;;;;;5094172;28;20442;-66
2022/08/07 14:47:57;;;;;;;56.97;2.03;;;;;;;;;;5094442;28;20453;-68
2022/08/07 14:50:25;;;;;;;56.70;1.80;;;;;;;;;;5093720;28;20957;-68
2022/08/07 14:52:53;;;;;;;56.67;1.87;;;;;;;;;;5094276;28;20537;-68
2022/08/07 14:55:21;;;;;;;59.10;2.30;;;;;;;;;;5094192;28;20827;-67